sensor_id;sensor_type;location;lat;lon;timestamp;pressure;altitude;pressure_sealevel;temperature;humidity
69630;BME280;56857;52.212;5.496;2023-11-21T00:02:06;101183.25;;;7.29;100.00
69630;BME280;56857;52.212;5.496;2023-11-21T00:04:31;101185.75;;;7.30;100.00
69630;BME280;56857;52.212;5.496;2023-11-21T00:06:56;101183.25;;;7.29;100.00
69630;BME280;56857;52.212;5.496;2023-11-21T00:09:22;101194.63;;;7.29;100.00
69630;BME280;56857;52.212;5.496;2023-11-21T00:11:48;101188.53;;;7.29;100.00
69630;BME280;56857;52.212;5.496;2023-11-21T00:14:13;101195.63;;;7.28;100.00
69630;BME280;56857;52.212;5.496;2023-11-21T00:16:38;101191.16;;;7.29;100.00
69630;BME280;56857;52.212;5.496;2023-11-21T00:19:04;101192.00;;;7.29;100.00
69630;BME280;56857;52.212;5.496;2023-11-21T00:21:30;101200.88;;;7.28;100.00
69630;BME280;56857;52.212;5.496;2023-11-21T00:23:55;101192.97;;;7.28;100.00
69630;BME280;56857;52.212;5.496;2023-11-21T00:26:20;101198.25;;;7.28;100.00
69630;BME280;56857;52.212;5.496;2023-11-21T00:28:46;101201.84;;;7.27;100.00
69630;BME280;56857;52.212;5.496;2023-11-21T00:31:11;101201.16;;;7.25;100.00
69630;BME280;56857;52.212;5.496;2023-11-21T00:33:36;101206.44;;;7.25;100.00
69630;BME280;56857;52.212;5.496;2023-11-21T00:36:02;101198.53;;;7.25;100.00
69630;BME280;56857;52.212;5.496;2023-11-21T00:38:27;101196.16;;;7.22;100.00
69630;BME280;56857;52.212;5.496;2023-11-21T00:40:53;101205.03;;;7.21;100.00
69630;BME280;56857;52.212;5.496;2023-11-21T00:43:18;101196.56;;;7.17;100.00
69630;BME280;56857;52.212;5.496;2023-11-21T00:45:43;101202.00;;;7.16;100.00
69630;BME280;56857;52.212;5.496;2023-11-21T00:48:09;101210.03;;;7.14;100.00
69630;BME280;56857;52.212;5.496;2023-11-21T00:50:34;101211.00;;;7.13;100.00
69630;BME280;56857;52.212;5.496;2023-11-21T00:52:59;101206.84;;;7.11;100.00
69630;BME280;56857;52.212;5.496;2023-11-21T00:55:25;101205.31;;;7.08;100.00
69630;BME280;56857;52.212;5.496;2023-11-21T00:57:50;101211.69;;;7.06;100.00
69630;BME280;56857;52.212;5.496;2023-11-21T01:00:16;101211.84;;;7.04;100.00
69630;BME280;56857;52.212;5.496;2023-11-21T01:02:41;101224.19;;;7.04;100.00
69630;BME280;56857;52.212;5.496;2023-11-21T01:05:07;101227.75;;;7.03;100.00
69630;BME280;56857;52.212;5.496;2023-11-21T01:07:32;101228.47;;;7.05;100.00
69630;BME280;56857;52.212;5.496;2023-11-21T01:09:57;101221.13;;;7.08;100.00
69630;BME280;56857;52.212;5.496;2023-11-21T01:12:23;101228.75;;;7.11;100.00
69630;BME280;56857;52.212;5.496;2023-11-21T01:14:48;101229.03;;;7.08;100.00
69630;BME280;56857;52.212;5.496;2023-11-21T01:17:13;101238.75;;;7.08;100.00
69630;BME280;56857;52.212;5.496;2023-11-21T01:19:39;101247.75;;;7.05;100.00
69630;BME280;56857;52.212;5.496;2023-11-21T01:22:04;101245.13;;;7.05;100.00
69630;BME280;56857;52.212;5.496;2023-11-21T01:24:29;101249.28;;;7.08;100.00
69630;BME280;56857;52.212;5.496;2023-11-21T01:26:54;101242.66;;;7.13;100.00
69630;BME280;56857;52.212;5.496;2023-11-21T01:29:19;101245.97;;;7.15;100.00
69630;BME280;56857;52.212;5.496;2023-11-21T01:31:45;101240.69;;;7.15;100.00
69630;BME280;56857;52.212;5.496;2023-11-21T01:34:10;101241.28;;;7.19;100.00
69630;BME280;56857;52.212;5.496;2023-11-21T01:36:35;101245.69;;;7.18;100.00
69630;BME280;56857;52.212;5.496;2023-11-21T01:39:01;101250.00;;;7.19;100.00
69630;BME280;56857;52.212;5.496;2023-11-21T01:41:27;101246.25;;;7.22;100.00
69630;BME280;56857;52.212;5.496;2023-11-21T01:43:53;101245.13;;;7.25;100.00
69630;BME280;56857;52.212;5.496;2023-11-21T01:46:19;101243.34;;;7.25;100.00
69630;BME280;56857;52.212;5.496;2023-11-21T01:48:45;101247.50;;;7.28;100.00
69630;BME280;56857;52.212;5.496;2023-11-21T01:51:10;101247.50;;;7.28;100.00
69630;BME280;56857;52.212;5.496;2023-11-21T01:53:35;101260.13;;;7.24;100.00
69630;BME280;56857;52.212;5.496;2023-11-21T01:56:01;101260.94;;;7.25;100.00
69630;BME280;56857;52.212;5.496;2023-11-21T01:58:26;101267.91;;;7.26;100.00
69630;BME280;56857;52.212;5.496;2023-11-21T02:00:52;101268.59;;;7.28;100.00
69630;BME280;56857;52.212;5.496;2023-11-21T02:03:17;101268.47;;;7.29;100.00
69630;BME280;56857;52.212;5.496;2023-11-21T02:05:42;101267.22;;;7.33;100.00
69630;BME280;56857;52.212;5.496;2023-11-21T02:08:07;101267.78;;;7.37;100.00
69630;BME280;56857;52.212;5.496;2023-11-21T02:10:33;101279.03;;;7.39;100.00
69630;BME280;56857;52.212;5.496;2023-11-21T02:12:58;101285.97;;;7.40;100.00
69630;BME280;56857;52.212;5.496;2023-11-21T02:15:24;101290.41;;;7.39;100.00
69630;BME280;56857;52.212;5.496;2023-11-21T02:17:50;101299.28;;;7.38;100.00
69630;BME280;56857;52.212;5.496;2023-11-21T02:20:15;101306.09;;;7.41;100.00
69630;BME280;56857;52.212;5.496;2023-11-21T02:22:41;101301.78;;;7.40;100.00
69630;BME280;56857;52.212;5.496;2023-11-21T02:25:07;101297.50;;;7.39;100.00
69630;BME280;56857;52.212;5.496;2023-11-21T02:27:32;101294.56;;;7.42;100.00
69630;BME280;56857;52.212;5.496;2023-11-21T02:29:57;101299.84;;;7.42;100.00
69630;BME280;56857;52.212;5.496;2023-11-21T02:32:22;101298.03;;;7.42;100.00
69630;BME280;56857;52.212;5.496;2023-11-21T02:34:48;101303.19;;;7.44;100.00
69630;BME280;56857;52.212;5.496;2023-11-21T02:37:14;101295.28;;;7.44;100.00
69630;BME280;56857;52.212;5.496;2023-11-21T02:39:39;101303.31;;;7.42;100.00
69630;BME280;56857;52.212;5.496;2023-11-21T02:42:04;101302.50;;;7.42;100.00
69630;BME280;56857;52.212;5.496;2023-11-21T02:44:30;101302.34;;;7.43;100.00
69630;BME280;56857;52.212;5.496;2023-11-21T02:46:55;101298.75;;;7.45;100.00
69630;BME280;56857;52.212;5.496;2023-11-21T02:49:20;101302.22;;;7.45;100.00
69630;BME280;56857;52.212;5.496;2023-11-21T02:51:45;101305.84;;;7.44;100.00
69630;BME280;56857;52.212;5.496;2023-11-21T02:54:11;101308.47;;;7.44;100.00
69630;BME280;56857;52.212;5.496;2023-11-21T02:56:36;101309.97;;;7.47;100.00
69630;BME280;56857;52.212;5.496;2023-11-21T02:59:01;101303.75;;;7.48;100.00
69630;BME280;56857;52.212;5.496;2023-11-21T03:01:27;101310.69;;;7.49;100.00
69630;BME280;56857;52.212;5.496;2023-11-21T03:03:53;101308.03;;;7.49;100.00
69630;BME280;56857;52.212;5.496;2023-11-21T03:06:19;101307.06;;;7.50;100.00
69630;BME280;56857;52.212;5.496;2023-11-21T03:08:45;101301.78;;;7.50;100.00
69630;BME280;56857;52.212;5.496;2023-11-21T03:11:10;101311.38;;;7.51;100.00
69630;BME280;56857;52.212;5.496;2023-11-21T03:13:35;101299.84;;;7.52;100.00
69630;BME280;56857;52.212;5.496;2023-11-21T03:16:01;101299.59;;;7.55;100.00
69630;BME280;56857;52.212;5.496;2023-11-21T03:18:26;101295.00;;;7.57;100.00
69630;BME280;56857;52.212;5.496;2023-11-21T03:20:54;101293.31;;;7.56;100.00
69630;BME280;56857;52.212;5.496;2023-11-21T03:23:20;101290.00;;;7.54;100.00
69630;BME280;56857;52.212;5.496;2023-11-21T03:25:45;101297.06;;;7.53;100.00
69630;BME280;56857;52.212;5.496;2023-11-21T03:28:11;101301.50;;;7.53;100.00
69630;BME280;56857;52.212;5.496;2023-11-21T03:30:36;101305.69;;;7.55;100.00
69630;BME280;56857;52.212;5.496;2023-11-21T03:33:01;101307.63;;;7.53;100.00
69630;BME280;56857;52.212;5.496;2023-11-21T03:35:26;101312.78;;;7.55;100.00
69630;BME280;56857;52.212;5.496;2023-11-21T03:37:52;101315.69;;;7.52;100.00
69630;BME280;56857;52.212;5.496;2023-11-21T03:40:17;101322.63;;;7.53;100.00
69630;BME280;56857;52.212;5.496;2023-11-21T03:42:43;101322.78;;;7.51;100.00
69630;BME280;56857;52.212;5.496;2023-11-21T03:45:08;101325.97;;;7.55;100.00
69630;BME280;56857;52.212;5.496;2023-11-21T03:47:34;101329.31;;;7.57;100.00
69630;BME280;56857;52.212;5.496;2023-11-21T03:49:59;101329.03;;;7.60;100.00
69630;BME280;56857;52.212;5.496;2023-11-21T03:52:25;101336.69;;;7.63;100.00
69630;BME280;56857;52.212;5.496;2023-11-21T03:54:50;101333.06;;;7.64;100.00
69630;BME280;56857;52.212;5.496;2023-11-21T03:57:16;101339.31;;;7.63;100.00
69630;BME280;56857;52.212;5.496;2023-11-21T03:59:42;101345.53;;;7.62;100.00
69630;BME280;56857;52.212;5.496;2023-11-21T04:02:07;101349.88;;;7.63;100.00
69630;BME280;56857;52.212;5.496;2023-11-21T04:04:34;101346.25;;;7.64;100.00
69630;BME280;56857;52.212;5.496;2023-11-21T04:06:59;101347.22;;;7.63;100.00
69630;BME280;56857;52.212;5.496;2023-11-21T04:09:25;101354.16;;;7.64;100.00
69630;BME280;56857;52.212;5.496;2023-11-21T04:11:53;101347.06;;;7.64;100.00
69630;BME280;56857;52.212;5.496;2023-11-21T04:14:20;101353.19;;;7.65;100.00
69630;BME280;56857;52.212;5.496;2023-11-21T04:16:45;101354.00;;;7.65;100.00
69630;BME280;56857;52.212;5.496;2023-11-21T04:19:11;101362.63;;;7.68;100.00
69630;BME280;56857;52.212;5.496;2023-11-21T04:21:37;101363.34;;;7.70;100.00
69630;BME280;56857;52.212;5.496;2023-11-21T04:24:02;101365.00;;;7.71;100.00
69630;BME280;56857;52.212;5.496;2023-11-21T04:26:28;101370.13;;;7.72;100.00
69630;BME280;56857;52.212;5.496;2023-11-21T04:28:53;101363.75;;;7.75;100.00
69630;BME280;56857;52.212;5.496;2023-11-21T04:31:18;101363.47;;;7.78;100.00
69630;BME280;56857;52.212;5.496;2023-11-21T04:33:44;101360.56;;;7.81;100.00
69630;BME280;56857;52.212;5.496;2023-11-21T04:36:09;101372.09;;;7.80;100.00
69630;BME280;56857;52.212;5.496;2023-11-21T04:38:34;101376.38;;;7.81;100.00
69630;BME280;56857;52.212;5.496;2023-11-21T04:41:00;101381.53;;;7.82;100.00
69630;BME280;56857;52.212;5.496;2023-11-21T04:43:25;101380.56;;;7.83;100.00
69630;BME280;56857;52.212;5.496;2023-11-21T04:45:50;101391.94;;;7.84;100.00
69630;BME280;56857;52.212;5.496;2023-11-21T04:48:16;101396.28;;;7.85;100.00
69630;BME280;56857;52.212;5.496;2023-11-21T04:50:41;101402.38;;;7.85;100.00
69630;BME280;56857;52.212;5.496;2023-11-21T04:53:06;101398.75;;;7.86;100.00
69630;BME280;56857;52.212;5.496;2023-11-21T04:55:31;101399.31;;;7.90;100.00
69630;BME280;56857;52.212;5.496;2023-11-21T04:57:57;101390.28;;;7.93;100.00
69630;BME280;56857;52.212;5.496;2023-11-21T05:00:22;101394.47;;;7.95;100.00
69630;BME280;56857;52.212;5.496;2023-11-21T05:02:47;101396.94;;;7.97;100.00
69630;BME280;56857;52.212;5.496;2023-11-21T05:05:13;101395.16;;;7.97;100.00
69630;BME280;56857;52.212;5.496;2023-11-21T05:07:39;101401.13;;;7.99;100.00
69630;BME280;56857;52.212;5.496;2023-11-21T05:10:05;101406.28;;;8.01;100.00
69630;BME280;56857;52.212;5.496;2023-11-21T05:12:31;101407.13;;;8.01;100.00
69630;BME280;56857;52.212;5.496;2023-11-21T05:14:57;101413.06;;;8.03;100.00
69630;BME280;56857;52.212;5.496;2023-11-21T05:17:22;101419.19;;;8.04;100.00
69630;BME280;56857;52.212;5.496;2023-11-21T05:19:47;101413.78;;;8.05;100.00
69630;BME280;56857;52.212;5.496;2023-11-21T05:22:13;101425.03;;;8.07;100.00
69630;BME280;56857;52.212;5.496;2023-11-21T05:24:38;101418.78;;;8.08;100.00
69630;BME280;56857;52.212;5.496;2023-11-21T05:27:03;101430.72;;;8.12;100.00
69630;BME280;56857;52.212;5.496;2023-11-21T05:29:28;101429.91;;;8.12;100.00
69630;BME280;56857;52.212;5.496;2023-11-21T05:31:54;101428.78;;;8.15;100.00
69630;BME280;56857;52.212;5.496;2023-11-21T05:34:19;101436.56;;;8.16;100.00
69630;BME280;56857;52.212;5.496;2023-11-21T05:36:44;101441.00;;;8.16;100.00
69630;BME280;56857;52.212;5.496;2023-11-21T05:39:10;101438.09;;;8.19;100.00
69630;BME280;56857;52.212;5.496;2023-11-21T05:41:35;101445.19;;;8.18;100.00
69630;BME280;56857;52.212;5.496;2023-11-21T05:44:00;101434.63;;;8.18;100.00
69630;BME280;56857;52.212;5.496;2023-11-21T05:46:26;101437.16;;;8.20;100.00
69630;BME280;56857;52.212;5.496;2023-11-21T05:48:51;101446.72;;;8.21;100.00
69630;BME280;56857;52.212;5.496;2023-11-21T05:51:16;101455.31;;;8.23;100.00
69630;BME280;56857;52.212;5.496;2023-11-21T05:53:42;101455.19;;;8.24;100.00
69630;BME280;56857;52.212;5.496;2023-11-21T05:56:07;101455.19;;;8.24;100.00
69630;BME280;56857;52.212;5.496;2023-11-21T05:58:32;101464.66;;;8.27;100.00
69630;BME280;56857;52.212;5.496;2023-11-21T06:00:58;101465.47;;;8.27;100.00
69630;BME280;56857;52.212;5.496;2023-11-21T06:03:23;101473.25;;;8.29;100.00
69630;BME280;56857;52.212;5.496;2023-11-21T06:05:49;101471.31;;;8.31;100.00
69630;BME280;56857;52.212;5.496;2023-11-21T06:08:14;101472.97;;;8.32;100.00
69630;BME280;56857;52.212;5.496;2023-11-21T06:10:39;101484.25;;;8.34;100.00
69630;BME280;56857;52.212;5.496;2023-11-21T06:13:04;101478.97;;;8.34;100.00
69630;BME280;56857;52.212;5.496;2023-11-21T06:15:30;101481.50;;;8.35;100.00
69630;BME280;56857;52.212;5.496;2023-11-21T06:17:55;101482.16;;;8.38;100.00
69630;BME280;56857;52.212;5.496;2023-11-21T06:20:21;101485.66;;;8.38;100.00
69630;BME280;56857;52.212;5.496;2023-11-21T06:22:49;101489.16;;;8.39;100.00
69630;BME280;56857;52.212;5.496;2023-11-21T06:25:14;101493.47;;;8.40;100.00
69630;BME280;56857;52.212;5.496;2023-11-21T06:27:40;101500.41;;;8.41;100.00
69630;BME280;56857;52.212;5.496;2023-11-21T06:30:06;101499.56;;;8.40;100.00
69630;BME280;56857;52.212;5.496;2023-11-21T06:32:32;101505.56;;;8.42;100.00
69630;BME280;56857;52.212;5.496;2023-11-21T06:34:58;101501.13;;;8.43;100.00
69630;BME280;56857;52.212;5.496;2023-11-21T06:37:23;101508.06;;;8.44;100.00
69630;BME280;56857;52.212;5.496;2023-11-21T06:39:49;101508.06;;;8.44;100.00
69630;BME280;56857;52.212;5.496;2023-11-21T06:42:14;101519.34;;;8.46;100.00
69630;BME280;56857;52.212;5.496;2023-11-21T06:44:39;101512.25;;;8.46;100.00
69630;BME280;56857;52.212;5.496;2023-11-21T06:47:05;101513.91;;;8.47;100.00
69630;BME280;56857;52.212;5.496;2023-11-21T06:49:30;101518.22;;;8.48;100.00
69630;BME280;56857;52.212;5.496;2023-11-21T06:51:55;101517.09;;;8.51;100.00
69630;BME280;56857;52.212;5.496;2023-11-21T06:54:21;101522.38;;;8.51;100.00
69630;BME280;56857;52.212;5.496;2023-11-21T06:56:46;101526.72;;;8.52;100.00
69630;BME280;56857;52.212;5.496;2023-11-21T06:59:12;101525.72;;;8.53;100.00
69630;BME280;56857;52.212;5.496;2023-11-21T07:01:37;101533.53;;;8.54;100.00
69630;BME280;56857;52.212;5.496;2023-11-21T07:04:02;101537.00;;;8.55;100.00
69630;BME280;56857;52.212;5.496;2023-11-21T07:06:28;101543.94;;;8.56;100.00
69630;BME280;56857;52.212;5.496;2023-11-21T07:08:53;101552.56;;;8.58;100.00
69630;BME280;56857;52.212;5.496;2023-11-21T07:11:18;101556.06;;;8.58;100.00
69630;BME280;56857;52.212;5.496;2023-11-21T07:13:43;101556.88;;;8.59;100.00
69630;BME280;56857;52.212;5.496;2023-11-21T07:16:09;101558.53;;;8.60;100.00
69630;BME280;56857;52.212;5.496;2023-11-21T07:18:34;101562.88;;;8.61;100.00
69630;BME280;56857;52.212;5.496;2023-11-21T07:20:59;101560.06;;;8.63;100.00
69630;BME280;56857;52.212;5.496;2023-11-21T07:23:25;101568.84;;;8.63;100.00
69630;BME280;56857;52.212;5.496;2023-11-21T07:25:50;101571.34;;;8.65;100.00
69630;BME280;56857;52.212;5.496;2023-11-21T07:28:15;101583.59;;;8.66;100.00
69630;BME280;56857;52.212;5.496;2023-11-21T07:30:41;101585.13;;;8.68;100.00
69630;BME280;56857;52.212;5.496;2023-11-21T07:33:06;101592.06;;;8.69;100.00
69630;BME280;56857;52.212;5.496;2023-11-21T07:35:31;101587.50;;;8.71;100.00
69630;BME280;56857;52.212;5.496;2023-11-21T07:37:57;101583.03;;;8.72;100.00
69630;BME280;56857;52.212;5.496;2023-11-21T07:40:22;101584.69;;;8.73;100.00
69630;BME280;56857;52.212;5.496;2023-11-21T07:42:47;101584.56;;;8.74;100.00
69630;BME280;56857;52.212;5.496;2023-11-21T07:45:12;101596.81;;;8.75;100.00
69630;BME280;56857;52.212;5.496;2023-11-21T07:47:38;101600.16;;;8.77;100.00
69630;BME280;56857;52.212;5.496;2023-11-21T07:50:04;101609.75;;;8.78;100.00
69630;BME280;56857;52.212;5.496;2023-11-21T07:52:29;101611.28;;;8.81;100.00
69630;BME280;56857;52.212;5.496;2023-11-21T07:54:55;101616.41;;;8.82;100.00
69630;BME280;56857;52.212;5.496;2023-11-21T07:57:20;101611.13;;;8.82;100.00
69630;BME280;56857;52.212;5.496;2023-11-21T07:59:45;101614.47;;;8.85;100.00
69630;BME280;56857;52.212;5.496;2023-11-21T08:02:11;101622.13;;;8.88;100.00
69630;BME280;56857;52.212;5.496;2023-11-21T08:04:36;101627.16;;;8.91;100.00
69630;BME280;56857;52.212;5.496;2023-11-21T08:07:01;101629.50;;;8.94;100.00
69630;BME280;56857;52.212;5.496;2023-11-21T08:09:27;101637.00;;;8.98;100.00
69630;BME280;56857;52.212;5.496;2023-11-21T08:11:53;101642.03;;;9.01;100.00
69630;BME280;56857;52.212;5.496;2023-11-21T08:14:18;101644.38;;;9.04;100.00
69630;BME280;56857;52.212;5.496;2023-11-21T08:16:44;101657.50;;;9.06;100.00
69630;BME280;56857;52.212;5.496;2023-11-21T08:19:09;101662.63;;;9.08;100.00
69630;BME280;56857;52.212;5.496;2023-11-21T08:21:34;101672.09;;;9.10;100.00
69630;BME280;56857;52.212;5.496;2023-11-21T08:23:59;101678.22;;;9.11;100.00
69630;BME280;56857;52.212;5.496;2023-11-21T08:26:25;101683.38;;;9.12;100.00
69630;BME280;56857;52.212;5.496;2023-11-21T08:28:50;101687.56;;;9.15;100.00
69630;BME280;56857;52.212;5.496;2023-11-21T08:31:16;101690.22;;;9.15;100.00
69630;BME280;56857;52.212;5.496;2023-11-21T08:33:41;101697.00;;;9.17;100.00
69630;BME280;56857;52.212;5.496;2023-11-21T08:36:08;101704.13;;;9.17;100.00
69630;BME280;56857;52.212;5.496;2023-11-21T08:38:34;101714.69;;;9.17;100.00
69630;BME280;56857;52.212;5.496;2023-11-21T08:40:59;101722.34;;;9.20;100.00
69630;BME280;56857;52.212;5.496;2023-11-21T08:43:24;101723.19;;;9.20;100.00
69630;BME280;56857;52.212;5.496;2023-11-21T08:45:50;101726.53;;;9.22;100.00
69630;BME280;56857;52.212;5.496;2023-11-21T08:48:15;101726.41;;;9.24;100.00
69630;BME280;56857;52.212;5.496;2023-11-21T08:50:40;101724.31;;;9.27;100.00
69630;BME280;56857;52.212;5.496;2023-11-21T08:53:06;101713.59;;;9.29;100.00
69630;BME280;56857;52.212;5.496;2023-11-21T08:55:31;101718.31;;;9.35;100.00
69630;BME280;56857;52.212;5.496;2023-11-21T08:57:56;101725.00;;;9.39;100.00
69630;BME280;56857;52.212;5.496;2023-11-21T09:00:22;101728.91;;;9.45;100.00
69630;BME280;56857;52.212;5.496;2023-11-21T09:02:47;101738.38;;;9.47;100.00
69630;BME280;56857;52.212;5.496;2023-11-21T09:05:13;101740.75;;;9.50;100.00
69630;BME280;56857;52.212;5.496;2023-11-21T09:07:40;101753.00;;;9.51;100.00
69630;BME280;56857;52.212;5.496;2023-11-21T09:10:07;101768.88;;;9.51;100.00
69630;BME280;56857;52.212;5.496;2023-11-21T09:12:33;101767.09;;;9.52;100.00
69630;BME280;56857;52.212;5.496;2023-11-21T09:14:59;101768.88;;;9.51;100.00
69630;BME280;56857;52.212;5.496;2023-11-21T09:17:24;101765.28;;;9.52;100.00
69630;BME280;56857;52.212;5.496;2023-11-21T09:19:50;101783.94;;;9.51;100.00
69630;BME280;56857;52.212;5.496;2023-11-21T09:22:16;101788.38;;;9.50;100.00
69630;BME280;56857;52.212;5.496;2023-11-21T09:24:41;101787.56;;;9.50;100.00
69630;BME280;56857;52.212;5.496;2023-11-21T09:27:06;101795.63;;;9.48;100.00
69630;BME280;56857;52.212;5.496;2023-11-21T09:29:31;101798.25;;;9.48;100.00
69630;BME280;56857;52.212;5.496;2023-11-21T09:31:57;101797.88;;;9.43;100.00
69630;BME280;56857;52.212;5.496;2023-11-21T09:34:22;101799.97;;;9.40;100.00
69630;BME280;56857;52.212;5.496;2023-11-21T09:36:48;101805.38;;;9.38;100.00
69630;BME280;56857;52.212;5.496;2023-11-21T09:39:14;101801.75;;;9.39;100.00
69630;BME280;56857;52.212;5.496;2023-11-21T09:41:52;101807.03;;;9.39;100.00
69630;BME280;56857;52.212;5.496;2023-11-21T09:44:35;101820.25;;;9.39;100.00
69630;BME280;56857;52.212;5.496;2023-11-21T09:47:01;101817.50;;;9.41;100.00
69630;BME280;56857;52.212;5.496;2023-11-21T09:49:28;101820.16;;;9.41;100.00
69630;BME280;56857;52.212;5.496;2023-11-21T09:51:55;101822.78;;;9.41;100.00
69630;BME280;56857;52.212;5.496;2023-11-21T09:54:21;101827.81;;;9.44;100.00
69630;BME280;56857;52.212;5.496;2023-11-21T09:56:46;101832.38;;;9.42;100.00
69630;BME280;56857;52.212;5.496;2023-11-21T09:59:13;101835.19;;;9.40;100.00
69630;BME280;56857;52.212;5.496;2023-11-21T10:01:40;101831.72;;;9.40;100.00
69630;BME280;56857;52.212;5.496;2023-11-21T10:04:06;101842.28;;;9.40;100.00
69630;BME280;56857;52.212;5.496;2023-11-21T10:06:32;101850.22;;;9.40;100.00
69630;BME280;56857;52.212;5.496;2023-11-21T10:08:59;101843.13;;;9.40;100.00
69630;BME280;56857;52.212;5.496;2023-11-21T10:11:27;101849.38;;;9.39;100.00
69630;BME280;56857;52.212;5.496;2023-11-21T10:13:54;101850.91;;;9.42;100.00
69630;BME280;56857;52.212;5.496;2023-11-21T10:16:19;101851.19;;;9.39;100.00
69630;BME280;56857;52.212;5.496;2023-11-21T10:18:45;101856.06;;;9.34;100.00
69630;BME280;56857;52.212;5.496;2023-11-21T10:21:10;101856.91;;;9.34;100.00
69630;BME280;56857;52.212;5.496;2023-11-21T10:23:36;101873.75;;;9.33;100.00
69630;BME280;56857;52.212;5.496;2023-11-21T10:26:02;101883.22;;;9.36;100.00
69630;BME280;56857;52.212;5.496;2023-11-21T10:28:28;101880.28;;;9.39;100.00
69630;BME280;56857;52.212;5.496;2023-11-21T10:30:54;101888.38;;;9.37;100.00
69630;BME280;56857;52.212;5.496;2023-11-21T10:33:27;101893.81;;;9.36;100.00
69630;BME280;56857;52.212;5.496;2023-11-21T10:35:52;101891.31;;;9.34;100.00
69630;BME280;56857;52.212;5.496;2023-11-21T10:38:17;101894.94;;;9.33;100.00
69630;BME280;56857;52.212;5.496;2023-11-21T10:40:44;101905.78;;;9.30;100.00
69630;BME280;56857;52.212;5.496;2023-11-21T10:43:09;101913.72;;;9.30;100.00
69630;BME280;56857;52.212;5.496;2023-11-21T10:45:38;101919.13;;;9.28;100.00
69630;BME280;56857;52.212;5.496;2023-11-21T10:48:07;101928.06;;;9.27;100.00
69630;BME280;56857;52.212;5.496;2023-11-21T10:50:35;101930.81;;;9.26;100.00
69630;BME280;56857;52.212;5.496;2023-11-21T10:53:03;101928.31;;;9.24;100.00
69630;BME280;56857;52.212;5.496;2023-11-21T10:55:30;101938.91;;;9.24;100.00
69630;BME280;56857;52.212;5.496;2023-11-21T10:57:58;101937.22;;;9.23;100.00
69630;BME280;56857;52.212;5.496;2023-11-21T11:00:24;101947.09;;;9.21;100.00
69630;BME280;56857;52.212;5.496;2023-11-21T11:02:53;101947.94;;;9.22;100.00
69630;BME280;56857;52.212;5.496;2023-11-21T11:05:19;101947.78;;;9.23;100.00
69630;BME280;56857;52.212;5.496;2023-11-21T11:07:48;101945.03;;;9.25;100.00
69630;BME280;56857;52.212;5.496;2023-11-21T11:10:15;101946.00;;;9.24;100.00
69630;BME280;56857;52.212;5.496;2023-11-21T11:12:41;101944.75;;;9.28;100.00
69630;BME280;56857;52.212;5.496;2023-11-21T11:15:08;101950.88;;;9.28;100.00
69630;BME280;56857;52.212;5.496;2023-11-21T11:17:39;101949.22;;;9.27;100.00
69630;BME280;56857;52.212;5.496;2023-11-21T11:20:05;101945.03;;;9.25;100.00
69630;BME280;56857;52.212;5.496;2023-11-21T11:22:37;101953.09;;;9.23;100.00
69630;BME280;56857;52.212;5.496;2023-11-21T11:28:04;101959.09;;;9.25;100.00
69630;BME280;56857;52.212;5.496;2023-11-21T11:36:22;101960.22;;;9.33;100.00
69630;BME280;56857;52.212;5.496;2023-11-21T11:38:50;101967.91;;;9.36;100.00
69630;BME280;56857;52.212;5.496;2023-11-21T11:41:25;101962.47;;;9.37;100.00
69630;BME280;56857;52.212;5.496;2023-11-21T11:43:51;101965.81;;;9.39;100.00
69630;BME280;56857;52.212;5.496;2023-11-21T11:46:16;101966.94;;;9.37;100.00
69630;BME280;56857;52.212;5.496;2023-11-21T11:48:41;101975.84;;;9.36;100.00
69630;BME280;56857;52.212;5.496;2023-11-21T11:51:11;101979.47;;;9.35;100.00
69630;BME280;56857;52.212;5.496;2023-11-21T11:53:40;101979.72;;;9.32;100.00
69630;BME280;56857;52.212;5.496;2023-11-21T11:56:19;101980.44;;;9.34;100.00
69630;BME280;56857;52.212;5.496;2023-11-21T11:58:44;101985.47;;;9.37;100.00
69630;BME280;56857;52.212;5.496;2023-11-21T12:01:11;101992.53;;;9.36;100.00
69630;BME280;56857;52.212;5.496;2023-11-21T12:03:36;102003.13;;;9.36;100.00
69630;BME280;56857;52.212;5.496;2023-11-21T12:06:07;101993.25;;;9.38;100.00
69630;BME280;56857;52.212;5.496;2023-11-21T12:08:34;102002.88;;;9.39;100.00
69630;BME280;56857;52.212;5.496;2023-11-21T12:11:01;102011.53;;;9.41;100.00
69630;BME280;56857;52.212;5.496;2023-11-21T12:13:27;101999.38;;;9.39;100.00
69630;BME280;56857;52.212;5.496;2023-11-21T12:15:53;101999.25;;;9.40;100.00
69630;BME280;56857;52.212;5.496;2023-11-21T12:18:18;102015.00;;;9.42;100.00
69630;BME280;56857;52.212;5.496;2023-11-21T12:20:44;102014.16;;;9.41;100.00
69630;BME280;56857;52.212;5.496;2023-11-21T12:23:09;102014.16;;;9.41;100.00
69630;BME280;56857;52.212;5.496;2023-11-21T12:25:34;102023.78;;;9.42;100.00
69630;BME280;56857;52.212;5.496;2023-11-21T12:28:02;102019.72;;;9.38;100.00
69630;BME280;56857;52.212;5.496;2023-11-21T12:30:35;102018.88;;;9.38;100.00
69630;BME280;56857;52.212;5.496;2023-11-21T12:33:02;102017.06;;;9.38;100.00
69630;BME280;56857;52.212;5.496;2023-11-21T12:35:29;102018.75;;;9.39;100.00
69630;BME280;56857;52.212;5.496;2023-11-21T12:37:55;102016.97;;;9.40;100.00
69630;BME280;56857;52.212;5.496;2023-11-21T12:40:21;102022.09;;;9.41;100.00
69630;BME280;56857;52.212;5.496;2023-11-21T12:42:47;102027.28;;;9.43;100.00
69630;BME280;56857;52.212;5.496;2023-11-21T12:45:23;102026.16;;;9.45;100.00
69630;BME280;56857;52.212;5.496;2023-11-21T12:47:52;102031.06;;;9.50;100.00
69630;BME280;56857;52.212;5.496;2023-11-21T12:50:24;102031.91;;;9.50;100.00
69630;BME280;56857;52.212;5.496;2023-11-21T12:52:51;102035.25;;;9.52;100.00